Time;durP1;ratioP1;P1;durP2;ratioP2;P2;SDS_P1;SDS_P2;PMS_P1;PMS_P2;Temp;Humidity;BMP_temperature;BMP_pressure;BME280_temperature;BME280_humidity;BME280_pressure;Samples;Min_cycle;Max_cycle;Signal;HPM_P1;HPM_P2
2021/06/16 00:00:57;;;;;;;7.28;6.00;;;;;;;18.67;82.81;98670.11;1854597;76;27897;-62
2021/06/16 00:03:32;;;;;;;7.03;5.70;;;;;;;18.73;82.68;98676.50;1890041;76;22253;-64
2021/06/16 00:06:06;;;;;;;7.80;6.22;;;;;;;18.61;83.19;98674.20;1870667;76;22141;-66
2021/06/16 00:08:42;;;;;;;6.78;5.90;;;;;;;18.65;83.10;98668.01;1889915;76;22574;-70
2021/06/16 00:11:18;;;;;;;7.58;5.72;;;;;;;18.59;83.33;98672.92;1870546;76;22132;-63
2021/06/16 00:14:12;;;;;;;12.23;6.33;;;;;;;18.54;83.77;98670.03;1876564;75;22220;-64
2021/06/16 00:16:48;;;;;;;9.90;6.62;;;;;;;18.51;84.04;98661.82;1870576;76;22164;-64
2021/06/16 00:19:22;;;;;;;7.87;6.70;;;;;;;18.51;84.20;98663.12;1870664;76;22112;-65
2021/06/16 00:21:58;;;;;;;8.03;6.75;;;;;;;18.52;84.26;98664.86;1889929;76;22163;-65
2021/06/16 00:24:33;;;;;;;8.60;7.00;;;;;;;18.48;84.39;98675.42;1854686;76;27912;-63
2021/06/16 00:27:08;;;;;;;7.10;5.92;;;;;;;18.49;85.10;98674.06;1870754;76;22137;-63
2021/06/16 00:29:43;;;;;;;8.05;6.67;;;;;;;18.47;85.06;98687.64;1889978;76;22561;-63
2021/06/16 00:32:17;;;;;;;10.08;6.40;;;;;;;18.44;85.34;98682.05;1870640;76;22165;-63
2021/06/16 00:34:52;;;;;;;12.28;6.75;;;;;;;18.40;85.30;98685.62;1870689;76;22148;-63
2021/06/16 00:37:39;;;;;;;10.18;6.80;;;;;;;18.33;85.62;98687.97;1827734;77;21265;-67
2021/06/16 00:40:17;;;;;;;8.45;6.45;;;;;;;18.34;85.88;98683.59;1870681;76;22603;-61
2021/06/16 00:42:52;;;;;;;7.80;6.83;;;;;;;18.33;85.94;98680.13;1870803;76;22559;-64
2021/06/16 00:45:27;;;;;;;9.70;7.53;;;;;;;18.32;86.14;98679.73;1854751;76;38314;-64
2021/06/16 00:48:05;;;;;;;9.28;6.97;;;;;;;18.34;86.39;98675.76;1889855;76;22188;-64
2021/06/16 00:50:47;;;;;;;7.75;6.50;;;;;;;18.32;86.88;98673.20;1889953;76;22205;-62
2021/06/16 00:53:21;;;;;;;11.57;8.03;;;;;;;18.31;87.18;98672.77;1870607;76;22591;-64
2021/06/16 00:56:07;;;;;;;9.20;7.03;;;;;;;18.24;87.48;98675.13;1760371;81;21141;-62
2021/06/16 00:58:43;;;;;;;9.58;7.65;;;;;;;18.30;87.81;98680.22;1870656;76;22117;-67
2021/06/16 01:01:25;;;;;;;9.48;7.50;;;;;;;18.31;88.01;98683.22;1854728;76;27887;-63
2021/06/16 01:04:21;;;;;;;9.63;7.58;;;;;;;18.38;88.05;98682.63;1889922;76;22113;-64
2021/06/16 01:07:09;;;;;;;9.18;7.78;;;;;;;18.41;88.28;98680.79;1870642;76;22153;-65
2021/06/16 01:10:04;;;;;;;8.48;6.95;;;;;;;18.40;88.09;98676.47;1870602;76;22613;-66
2021/06/16 01:13:02;;;;;;;8.80;7.87;;;;;;;18.39;88.25;98674.77;1889926;76;22169;-63
2021/06/16 01:15:46;;;;;;;9.35;8.30;;;;;;;18.39;88.29;98672.16;1870632;76;22141;-65
2021/06/16 01:18:37;;;;;;;8.63;7.33;;;;;;;18.34;88.37;98672.72;1827770;78;21695;-62
2021/06/16 01:21:14;;;;;;;11.22;7.72;;;;;;;18.37;88.38;98670.03;1870390;76;22594;-64
2021/06/16 01:24:07;;;;;;;9.98;8.30;;;;;;;18.37;88.44;98671.33;1873909;76;27941;-62
2021/06/16 01:26:54;;;;;;;9.50;8.23;;;;;;;18.42;88.44;98672.08;1889922;76;22193;-64
2021/06/16 01:29:41;;;;;;;9.88;7.62;;;;;;;18.37;88.34;98667.41;1861613;77;21122;-65
2021/06/16 01:32:17;;;;;;;12.20;8.03;;;;;;;18.39;88.28;98670.85;1890157;76;22152;-65
2021/06/16 01:34:53;;;;;;;10.72;8.05;;;;;;;18.37;88.47;98670.03;1889938;76;22152;-64
2021/06/16 01:37:28;;;;;;;9.65;8.55;;;;;;;18.36;88.40;98672.66;1870463;76;22139;-66
2021/06/16 01:40:24;;;;;;;11.28;8.05;;;;;;;18.36;88.25;98680.05;1876120;75;22213;-63
2021/06/16 01:43:01;;;;;;;12.28;8.23;;;;;;;18.33;88.09;98685.36;1870466;76;22145;-66
2021/06/16 01:45:39;;;;;;;9.90;8.68;;;;;;;18.29;88.07;98686.77;1890029;76;22116;-67
2021/06/16 01:48:35;;;;;;;10.15;8.60;;;;;;;18.26;88.02;98689.47;1867981;75;22224;-68
2021/06/16 01:51:15;;;;;;;9.53;7.72;;;;;;;18.22;87.95;98686.08;1889929;76;22104;-62
2021/06/16 01:53:52;;;;;;;9.93;7.95;;;;;;;18.19;88.02;98687.44;1870712;76;22106;-63
2021/06/16 01:56:28;;;;;;;10.90;8.43;;;;;;;18.17;88.10;98691.87;1889895;76;22139;-61
2021/06/16 01:59:07;;;;;;;9.18;8.28;;;;;;;18.17;88.13;98693.17;1870471;76;22141;-64
2021/06/16 02:01:53;;;;;;;12.28;8.45;;;;;;;18.16;87.97;98707.96;1827680;77;21719;-61
2021/06/16 02:04:28;;;;;;;10.32;8.30;;;;;;;18.21;87.87;98691.73;1889979;76;22147;-63
2021/06/16 02:07:16;;;;;;;10.38;8.25;;;;;;;18.24;87.79;98706.47;1889867;76;22142;-65
2021/06/16 02:10:09;;;;;;;10.13;8.63;;;;;;;18.26;87.64;98711.22;1889929;76;22251;-64
2021/06/16 02:12:46;;;;;;;12.80;9.30;;;;;;;18.29;87.49;98718.12;1870661;76;22153;-61
2021/06/16 02:15:21;;;;;;;11.48;8.65;;;;;;;18.32;87.31;98718.92;1854945;76;28379;-65
2021/06/16 02:18:00;;;;;;;9.03;7.58;;;;;;;18.36;87.08;98724.46;1889922;76;22143;-65
2021/06/16 02:20:36;;;;;;;10.93;8.40;;;;;;;18.38;86.85;98734.89;1870639;76;22116;-63
2021/06/16 02:23:12;;;;;;;9.30;7.95;;;;;;;18.37;86.65;98731.42;1870654;76;20204;-63
2021/06/16 02:25:48;;;;;;;9.53;8.45;;;;;;;18.39;86.48;98730.95;1870683;76;20220;-61
2021/06/16 02:28:23;;;;;;;9.93;8.30;;;;;;;18.39;86.33;98727.03;1854763;76;27933;-67
2021/06/16 02:30:58;;;;;;;11.28;8.78;;;;;;;18.47;86.16;98731.18;1854623;76;27939;-63
2021/06/16 02:33:44;;;;;;;9.65;8.18;;;;;;;18.52;86.06;98734.53;1827553;77;21656;-63
2021/06/16 02:36:21;;;;;;;9.95;8.18;;;;;;;18.58;86.00;98730.48;1870641;76;22570;-62
2021/06/16 02:39:03;;;;;;;9.85;8.48;;;;;;;18.59;85.81;98742.64;1889964;76;22562;-62
2021/06/16 02:41:39;;;;;;;10.40;8.63;;;;;;;18.62;85.48;98736.02;1870610;76;22117;-65
2021/06/16 02:44:20;;;;;;;10.88;8.90;;;;;;;18.64;85.08;98739.46;1869674;76;22156;-64
2021/06/16 02:46:58;;;;;;;11.60;8.33;;;;;;;18.64;84.81;98739.00;1854579;76;38678;-65
2021/06/16 02:49:43;;;;;;;10.60;7.70;;;;;;;18.70;84.65;98741.94;1870573;76;22538;-65
2021/06/16 02:52:20;;;;;;;10.98;8.10;;;;;;;18.73;84.56;98745.77;1870647;76;22531;-65
2021/06/16 02:55:01;;;;;;;12.65;8.48;;;;;;;18.75;84.43;98747.94;1870676;76;20208;-64
2021/06/16 02:57:41;;;;;;;13.62;8.85;;;;;;;18.77;84.31;98746.12;1870452;76;22168;-63
2021/06/16 03:00:19;;;;;;;11.33;8.73;;;;;;;18.75;84.31;98742.70;1870658;76;22171;-67
2021/06/16 03:02:55;;;;;;;10.98;8.05;;;;;;;18.74;84.55;98731.80;1870589;76;22141;-65
2021/06/16 03:05:30;;;;;;;12.37;8.15;;;;;;;18.74;84.72;98738.33;1870673;76;20176;-65
2021/06/16 03:08:06;;;;;;;12.45;9.20;;;;;;;18.75;84.83;98733.56;1889909;76;22163;-67
2021/06/16 03:10:48;;;;;;;12.30;8.53;;;;;;;18.80;84.95;98735.61;1869749;76;22152;-64
2021/06/16 03:13:26;;;;;;;13.48;8.80;;;;;;;18.86;84.86;98731.51;1873855;76;27955;-65
2021/06/16 03:16:00;;;;;;;10.03;8.25;;;;;;;18.95;84.85;98723.00;1870544;76;22145;-64
2021/06/16 03:18:37;;;;;;;14.58;8.53;;;;;;;19.01;84.68;98725.47;1889879;76;22570;-63
2021/06/16 03:21:14;;;;;;;12.20;8.90;;;;;;;19.07;84.60;98724.84;1854717;76;27938;-63
2021/06/16 03:23:49;;;;;;;11.88;8.78;;;;;;;19.20;84.36;98731.89;1854907;76;27941;-63
2021/06/16 03:26:26;;;;;;;12.68;8.23;;;;;;;19.32;83.94;98730.70;1889857;76;22185;-64
2021/06/16 03:28:59;;;;;;;11.80;8.03;;;;;;;19.42;83.61;98735.23;1854899;76;28021;-66
2021/06/16 03:31:34;;;;;;;12.35;9.00;;;;;;;19.56;83.22;98740.91;1854687;76;27920;-63
2021/06/16 03:34:19;;;;;;;11.22;8.75;;;;;;;19.69;82.73;98742.75;1760426;81;21726;-63
2021/06/16 03:37:20;;;;;;;14.03;8.88;;;;;;;19.86;82.30;98743.11;1872989;76;22578;-65
2021/06/16 03:39:57;;;;;;;11.90;8.03;;;;;;;19.99;81.92;98740.97;1870528;76;22176;-62
2021/06/16 03:42:35;;;;;;;12.55;9.15;;;;;;;20.09;80.94;98747.64;1870447;76;22606;-63
2021/06/16 03:45:12;;;;;;;12.95;8.28;;;;;;;20.25;79.65;98752.39;1889888;76;22155;-61
2021/06/16 03:47:48;;;;;;;10.53;7.42;;;;;;;20.32;79.77;98756.54;1866588;76;22185;-62
2021/06/16 03:50:37;;;;;;;11.70;7.85;;;;;;;20.32;78.76;98752.61;1813127;78;21224;-66
2021/06/16 03:53:16;;;;;;;11.93;7.97;;;;;;;20.40;78.47;98753.21;1821744;77;22291;-65
2021/06/16 03:55:51;;;;;;;11.93;7.42;;;;;;;20.39;77.78;98758.06;1855422;76;22159;-63
2021/06/16 03:58:26;;;;;;;10.28;7.25;;;;;;;20.45;77.87;98757.85;1854620;76;22152;-63
2021/06/16 04:01:01;;;;;;;13.08;7.67;;;;;;;20.51;77.67;98762.91;1855321;76;22157;-65
2021/06/16 04:03:36;;;;;;;8.90;7.40;;;;;;;20.54;76.82;98764.58;1856754;76;22275;-60
2021/06/16 04:06:22;;;;;;;11.22;7.55;;;;;;;20.50;76.67;98779.53;1827729;78;21275;-63
2021/06/16 04:08:57;;;;;;;9.90;7.40;;;;;;;20.49;76.29;98764.72;1870591;76;20097;-65
2021/06/16 04:11:33;;;;;;;11.45;8.18;;;;;;;20.56;76.22;98767.58;1870621;76;22132;-66
2021/06/16 04:14:08;;;;;;;12.50;7.60;;;;;;;20.62;76.13;98769.60;1849126;76;28026;-66
2021/06/16 04:16:44;;;;;;;9.68;7.28;;;;;;;20.69;75.40;98770.66;1852225;76;22608;-63
2021/06/16 04:19:18;;;;;;;13.32;8.10;;;;;;;20.73;74.86;98777.95;1836658;76;28380;-62
2021/06/16 04:21:59;;;;;;;11.43;7.08;;;;;;;20.75;74.51;98777.45;1852716;76;22190;-64
2021/06/16 04:24:46;;;;;;;11.30;6.80;;;;;;;20.68;74.42;98787.28;1813054;78;21569;-63
2021/06/16 04:27:27;;;;;;;9.93;6.30;;;;;;;20.73;73.71;98776.64;1819412;77;22170;-63
2021/06/16 04:30:06;;;;;;;9.60;6.50;;;;;;;20.74;72.43;98778.38;1863273;76;22167;-66
2021/06/16 04:32:53;;;;;;;11.57;5.78;;;;;;;20.74;72.42;98782.31;1833274;77;21122;-63
2021/06/16 04:35:28;;;;;;;9.25;6.20;;;;;;;20.92;72.05;98786.93;1854295;76;20227;-65
2021/06/16 04:38:03;;;;;;;9.73;6.58;;;;;;;21.03;71.34;98793.97;1858542;76;22182;-63
2021/06/16 04:40:38;;;;;;;13.08;6.72;;;;;;;21.14;71.03;98789.69;1854040;76;22208;-64
2021/06/16 04:43:18;;;;;;;9.88;5.83;;;;;;;21.24;70.13;98788.45;1851279;76;22253;-68
2021/06/16 04:45:53;;;;;;;7.53;5.60;;;;;;;21.26;70.02;98791.00;1867886;76;22179;-66
2021/06/16 04:48:27;;;;;;;9.33;6.37;;;;;;;21.22;69.45;98795.98;1854849;76;22256;-64
2021/06/16 04:51:02;;;;;;;8.03;6.12;;;;;;;21.18;69.77;98795.21;1855953;76;22592;-65
2021/06/16 04:53:37;;;;;;;7.70;6.40;;;;;;;21.19;69.74;98792.13;1870223;76;22155;-65
2021/06/16 04:56:12;;;;;;;7.58;5.85;;;;;;;21.24;69.33;98796.76;1851937;76;22213;-66
2021/06/16 04:58:47;;;;;;;8.18;6.25;;;;;;;21.35;68.98;98794.63;1855027;76;22184;-63
2021/06/16 05:01:28;;;;;;;9.38;6.70;;;;;;;21.47;68.35;98799.91;1882278;74;22206;-66
2021/06/16 05:04:04;;;;;;;8.88;5.92;;;;;;;21.63;67.33;98791.04;1857979;76;22198;-67
2021/06/16 05:06:45;;;;;;;10.58;5.58;;;;;;;21.78;67.30;98795.72;1852969;76;22235;-63
2021/06/16 05:09:20;;;;;;;10.58;5.55;;;;;;;21.96;66.30;98799.89;1862145;76;22175;-65
2021/06/16 05:11:55;;;;;;;10.55;6.35;;;;;;;22.04;65.81;98797.82;1838643;76;27984;-66
2021/06/16 05:14:30;;;;;;;11.90;6.03;;;;;;;22.17;65.58;98799.52;1856678;76;22584;-66
2021/06/16 05:17:05;;;;;;;9.60;5.95;;;;;;;22.20;65.09;98798.95;1853277;76;22168;-66
2021/06/16 05:19:46;;;;;;;10.70;5.83;;;;;;;22.22;65.16;98804.17;1851708;76;22193;-66
2021/06/16 05:22:21;;;;;;;9.35;6.00;;;;;;;22.23;64.71;98804.09;1852535;76;22622;-66
2021/06/16 05:25:00;;;;;;;11.80;5.87;;;;;;;22.30;64.82;98814.77;1846016;76;22191;-65
2021/06/16 05:27:36;;;;;;;12.07;5.80;;;;;;;22.40;64.84;98814.42;1853119;76;22171;-61
2021/06/16 05:30:13;;;;;;;7.87;5.25;;;;;;;22.56;64.47;98823.39;1848217;76;22596;-64
2021/06/16 05:32:46;;;;;;;10.60;5.97;;;;;;;22.64;63.80;98817.36;1839465;76;28333;-66
2021/06/16 05:35:22;;;;;;;11.40;5.55;;;;;;;22.75;63.46;98827.47;1856811;76;22151;-68
2021/06/16 05:37:57;;;;;;;9.18;5.60;;;;;;;22.75;62.90;98825.69;1859240;76;22566;-68
2021/06/16 05:40:32;;;;;;;10.20;5.90;;;;;;;22.73;62.79;98833.25;1839552;76;28161;-67
2021/06/16 05:43:08;;;;;;;8.55;5.42;;;;;;;22.68;62.88;98829.95;1850707;76;20116;-68
2021/06/16 05:45:54;;;;;;;10.18;5.97;;;;;;;22.66;63.10;98831.31;1813074;78;21706;-64
2021/06/16 05:48:29;;;;;;;12.50;6.28;;;;;;;22.72;62.54;98832.40;1855010;76;22164;-65
2021/06/16 05:51:05;;;;;;;11.70;5.80;;;;;;;22.73;62.81;98829.30;1856231;76;22189;-66
2021/06/16 05:53:51;;;;;;;10.72;4.97;;;;;;;22.87;62.75;98832.67;1824959;77;21133;-65
2021/06/16 05:56:27;;;;;;;14.63;5.47;;;;;;;24.13;59.35;98829.86;1868553;76;22307;-63
2021/06/16 05:59:01;;;;;;;12.60;5.25;;;;;;;25.57;55.28;98837.32;1850671;76;22193;-66
2021/06/16 06:01:37;;;;;;;10.35;5.28;;;;;;;26.84;51.03;98841.41;1856249;76;22561;-63
2021/06/16 06:04:18;;;;;;;12.98;4.90;;;;;;;27.80;48.79;98844.09;1889831;76;22640;-65
2021/06/16 06:06:53;;;;;;;16.37;4.47;;;;;;;28.98;45.81;98850.36;1870644;76;22117;-64
2021/06/16 06:09:34;;;;;;;8.60;3.85;;;;;;;30.16;44.02;98854.70;1869726;76;22598;-68
2021/06/16 06:12:09;;;;;;;7.95;3.80;;;;;;;31.20;41.37;98864.89;1870577;76;22253;-68
2021/06/16 06:14:50;;;;;;;7.70;3.80;;;;;;;31.93;39.19;98869.94;1848053;76;22282;-64
2021/06/16 06:17:26;;;;;;;12.13;3.98;;;;;;;32.26;37.34;98870.88;1854507;76;27958;-62
2021/06/16 06:20:04;;;;;;;13.32;3.95;;;;;;;32.31;37.22;98878.52;1839293;76;28025;-66
2021/06/16 06:22:38;;;;;;;6.00;3.60;;;;;;;32.86;35.95;98879.41;1856836;76;22250;-64
2021/06/16 06:25:18;;;;;;;9.55;3.80;;;;;;;33.22;35.30;98890.72;1871084;76;22562;-64
2021/06/16 06:27:53;;;;;;;8.25;3.37;;;;;;;33.15;34.54;98893.55;1852081;76;22097;-63
2021/06/16 06:30:40;;;;;;;7.97;3.20;;;;;;;33.21;34.74;98906.42;1746814;80;21141;-63
2021/06/16 06:33:35;;;;;;;9.78;3.22;;;;;;;33.52;33.76;98912.70;1843586;75;30815;-62
2021/06/16 06:36:10;;;;;;;8.68;3.22;;;;;;;33.94;33.42;98910.88;1870499;76;22095;-64
2021/06/16 06:38:58;;;;;;;6.03;3.10;;;;;;;34.44;31.65;98907.93;1873986;76;28095;-64
2021/06/16 06:41:39;;;;;;;8.55;2.67;;;;;;;34.48;32.04;98914.23;1869086;76;22473;-65
2021/06/16 06:44:13;;;;;;;5.80;3.05;;;;;;;33.68;33.36;98910.92;1852450;76;22166;-64
2021/06/16 06:46:54;;;;;;;5.22;3.17;;;;;;;32.74;34.38;98916.50;1869775;76;22148;-64
2021/06/16 06:49:29;;;;;;;4.20;3.00;;;;;;;32.41;35.39;98915.08;1868264;76;22113;-63
2021/06/16 06:52:04;;;;;;;6.90;3.25;;;;;;;32.50;35.41;98916.19;1908829;74;22052;-64
2021/06/16 06:54:40;;;;;;;8.45;3.12;;;;;;;32.43;35.38;98912.27;1841316;76;20378;-66
2021/06/16 06:57:16;;;;;;;6.73;3.20;;;;;;;32.16;36.04;98912.17;1838388;76;28005;-64
2021/06/16 06:59:53;;;;;;;10.40;2.98;;;;;;;32.80;35.66;98919.53;1889628;76;22074;-62
2021/06/16 07:02:27;;;;;;;6.15;2.85;;;;;;;33.01;35.28;98918.24;1858900;76;22639;-65
2021/06/16 07:05:16;;;;;;;5.53;3.22;;;;;;;32.47;35.24;98908.88;1827411;78;21341;-63
2021/06/16 07:07:52;;;;;;;9.00;3.58;;;;;;;31.54;36.77;98910.71;1854214;76;22266;-65
2021/06/16 07:10:34;;;;;;;8.33;3.20;;;;;;;31.75;36.58;98905.56;1840999;76;22530;-65
2021/06/16 07:13:09;;;;;;;8.28;3.47;;;;;;;32.35;36.10;98906.20;1859693;76;22069;-64
2021/06/16 07:15:45;;;;;;;9.10;3.08;;;;;;;32.90;35.07;98906.73;1853815;76;20374;-65
2021/06/16 07:18:20;;;;;;;5.22;2.83;;;;;;;33.12;33.81;98907.17;1870612;76;22090;-66
2021/06/16 07:20:58;;;;;;;5.62;3.42;;;;;;;33.36;33.55;98913.16;1869266;76;22154;-65
2021/06/16 07:23:38;;;;;;;5.37;2.90;;;;;;;33.47;33.53;98917.09;1864255;76;22127;-62
2021/06/16 07:26:13;;;;;;;6.30;2.72;;;;;;;33.78;33.92;98923.88;1856180;76;22094;-63
2021/06/16 07:28:47;;;;;;;7.80;2.67;;;;;;;34.55;32.39;98917.19;1864371;76;22112;-64
2021/06/16 07:31:41;;;;;;;7.12;2.83;;;;;;;35.26;30.87;98932.32;1860820;75;22213;-64
2021/06/16 07:34:17;;;;;;;6.22;2.60;;;;;;;35.49;30.46;98929.69;1853298;76;22122;-61
2021/06/16 07:37:04;;;;;;;6.80;2.58;;;;;;;35.53;30.09;98935.13;1804348;78;21150;-63
2021/06/16 07:39:39;;;;;;;6.25;2.40;;;;;;;35.73;29.80;98941.86;1870613;76;22505;-64
2021/06/16 07:42:14;;;;;;;8.23;2.40;;;;;;;35.30;30.15;98936.42;1824076;77;31495;-64
2021/06/16 07:44:59;;;;;;;6.17;2.22;;;;;;;35.37;30.43;98944.27;1796354;79;22083;-64
2021/06/16 07:47:34;;;;;;;3.80;2.20;;;;;;;35.10;30.01;98940.44;1856244;76;22141;-65
2021/06/16 07:50:10;;;;;;;5.05;2.67;;;;;;;34.65;30.21;98944.91;1854188;76;22554;-64
2021/06/16 07:52:45;;;;;;;5.37;2.42;;;;;;;34.46;30.40;98940.81;1854053;76;22104;-64
2021/06/16 07:55:20;;;;;;;4.22;2.45;;;;;;;34.64;29.84;98933.84;1870609;76;22082;-64
2021/06/16 07:57:54;;;;;;;6.08;2.05;;;;;;;34.71;29.50;98940.34;1870550;76;22050;-67
2021/06/16 08:00:40;;;;;;;4.28;2.00;;;;;;;34.55;30.06;98923.89;1760269;81;21166;-63
2021/06/16 08:03:15;;;;;;;3.27;1.80;;;;;;;35.11;28.86;98931.88;1870688;76;22145;-64
2021/06/16 08:05:50;;;;;;;6.83;2.12;;;;;;;35.33;28.02;98934.80;1889867;76;22564;-63
2021/06/16 08:08:25;;;;;;;7.23;2.30;;;;;;;35.73;26.92;98936.48;1849728;76;28031;-64
2021/06/16 08:11:01;;;;;;;10.63;2.92;;;;;;;36.30;26.35;98931.94;1889900;76;22200;-64
2021/06/16 08:13:36;;;;;;;4.80;2.20;;;;;;;36.50;26.86;98937.57;1870702;76;22082;-65
2021/06/16 08:16:12;;;;;;;6.22;1.98;;;;;;;37.04;26.08;98940.91;1854717;76;27917;-65
2021/06/16 08:18:48;;;;;;;4.78;1.62;;;;;;;37.65;25.47;98948.21;1870635;76;22513;-63
2021/06/16 08:21:29;;;;;;;4.95;1.77;;;;;;;37.32;23.94;98955.98;1889801;76;22476;-63
2021/06/16 08:24:06;;;;;;;4.55;1.70;;;;;;;36.83;24.41;98944.70;1873893;76;27987;-65
2021/06/16 08:26:46;;;;;;;3.98;1.77;;;;;;;36.49;24.24;98945.80;1869752;76;22054;-64
2021/06/16 08:29:27;;;;;;;5.97;1.70;;;;;;;35.45;25.78;98936.34;1889841;76;22096;-65
2021/06/16 08:32:04;;;;;;;3.20;1.45;;;;;;;34.86;26.83;98942.15;1889965;76;22179;-64
2021/06/16 08:34:39;;;;;;;3.87;1.67;;;;;;;34.18;27.76;98941.89;1862051;76;22128;-63
2021/06/16 08:37:20;;;;;;;3.05;1.60;;;;;;;33.53;29.03;98942.98;1869790;76;22121;-64
2021/06/16 08:39:54;;;;;;;4.00;1.90;;;;;;;33.45;29.52;98947.14;1870550;76;22610;-65
2021/06/16 08:42:36;;;;;;;8.15;2.10;;;;;;;33.26;29.97;98936.30;1869645;76;22561;-65
2021/06/16 08:45:19;;;;;;;4.67;2.25;;;;;;;32.84;30.85;98938.83;1834288;77;22543;-66
2021/06/16 08:48:07;;;;;;;5.15;1.98;;;;;;;32.68;31.11;98945.91;1728778;83;21304;-64
2021/06/16 08:50:42;;;;;;;4.55;2.60;;;;;;;33.10;30.66;98947.41;1889921;76;22108;-65
2021/06/16 08:53:16;;;;;;;5.42;2.12;;;;;;;32.96;30.65;98948.52;1861562;76;22531;-64
2021/06/16 08:55:58;;;;;;;5.62;2.22;;;;;;;33.10;30.66;98954.59;1889861;76;22089;-63
2021/06/16 08:58:44;;;;;;;2.60;1.30;;;;;;;33.32;29.65;98941.13;1827462;78;21106;-63
2021/06/16 09:01:20;;;;;;;2.87;1.50;;;;;;;33.53;28.47;98957.69;1889880;76;22082;-63
2021/06/16 09:04:00;;;;;;;4.35;1.45;;;;;;;33.50;28.36;98956.97;1869720;76;22520;-62
2021/06/16 09:06:35;;;;;;;3.47;1.72;;;;;;;33.53;28.59;98953.69;1851740;76;22112;-63
2021/06/16 09:09:16;;;;;;;7.30;2.20;;;;;;;33.30;28.80;98952.44;1848363;76;22213;-62
2021/06/16 09:11:50;;;;;;;6.72;1.60;;;;;;;32.81;29.83;98946.61;1870412;76;22095;-63
2021/06/16 09:14:25;;;;;;;3.52;1.80;;;;;;;32.42;30.62;98949.31;1889966;76;22229;-63
2021/06/16 09:17:22;;;;;;;3.67;1.70;;;;;;;31.81;31.81;98951.42;1838924;76;22233;-63
2021/06/16 09:20:09;;;;;;;3.52;1.80;;;;;;;31.50;31.80;98947.94;1831700;78;21304;-62
2021/06/16 09:23:12;;;;;;;7.92;2.85;;;;;;;30.89;32.95;98941.33;1867839;76;22117;-66
2021/06/16 09:26:09;;;;;;;3.55;1.80;;;;;;;30.37;33.58;98942.38;1855883;76;22277;-63
2021/06/16 09:28:55;;;;;;;5.25;2.30;;;;;;;29.58;35.12;98926.94;1889929;76;22086;-64
2021/06/16 09:31:42;;;;;;;5.37;2.12;;;;;;;28.75;36.94;98934.18;1870540;76;22190;-64
2021/06/16 09:34:28;;;;;;;4.10;1.85;;;;;;;28.20;38.15;98927.04;1827469;78;21138;-64
2021/06/16 09:37:06;;;;;;;3.25;1.80;;;;;;;27.73;38.95;98930.27;1851087;76;22105;-64
2021/06/16 09:39:43;;;;;;;7.80;1.92;;;;;;;27.34;39.82;98930.37;1870539;76;22083;-63
2021/06/16 09:42:21;;;;;;;4.40;2.00;;;;;;;26.99;39.72;98934.53;1863987;76;22340;-65
2021/06/16 09:44:54;;;;;;;5.90;2.20;;;;;;;26.70;41.10;98926.08;1870750;76;22319;-63
2021/06/16 09:47:30;;;;;;;4.97;1.98;;;;;;;26.60;41.62;98921.76;1843262;76;38672;-66
2021/06/16 09:50:07;;;;;;;6.50;1.90;;;;;;;26.67;41.14;98928.91;1873773;76;27888;-64
2021/06/16 09:52:47;;;;;;;3.80;2.00;;;;;;;26.72;42.00;98928.17;1859142;76;28406;-64
2021/06/16 09:55:27;;;;;;;4.70;1.98;;;;;;;26.61;41.34;98920.36;1858184;76;22149;-68
2021/06/16 09:58:08;;;;;;;3.08;2.15;;;;;;;26.41;41.89;98919.25;1848287;76;22209;-67
2021/06/16 10:00:55;;;;;;;4.72;2.27;;;;;;;26.31;41.61;98931.27;1817983;78;21271;-64
2021/06/16 10:03:32;;;;;;;4.40;1.80;;;;;;;26.28;41.17;98926.13;1830646;76;28005;-47
2021/06/16 10:06:15;;;;;;;5.50;2.40;;;;;;;26.23;41.86;98934.78;1857255;76;20117;-65
2021/06/16 10:08:50;;;;;;;3.83;1.70;;;;;;;26.24;42.95;98916.66;1856389;76;22179;-64
2021/06/16 10:11:28;;;;;;;4.53;2.02;;;;;;;26.31;42.22;98915.40;1836422;76;28285;-66
2021/06/16 10:14:00;;;;;;;7.50;2.20;;;;;;;26.26;41.35;98916.13;1852417;76;22160;-64
2021/06/16 10:16:35;;;;;;;5.83;1.98;;;;;;;26.16;41.92;98913.95;1852480;76;22140;-64
2021/06/16 10:19:10;;;;;;;2.90;1.70;;;;;;;26.23;42.05;98912.29;1854294;76;22208;-63
2021/06/16 10:21:44;;;;;;;5.08;1.70;;;;;;;26.27;40.80;98912.52;1853853;76;22558;-64
2021/06/16 10:24:30;;;;;;;2.85;1.65;;;;;;;26.16;40.95;98916.60;1813370;78;21260;-64
2021/06/16 10:27:30;;;;;;;9.38;1.92;;;;;;;26.29;41.08;98903.56;1855320;75;22194;-63
2021/06/16 10:30:13;;;;;;;3.95;1.80;;;;;;;26.18;41.37;98901.95;1852857;76;22570;-64
2021/06/16 10:32:50;;;;;;;4.83;1.82;;;;;;;26.11;42.13;98894.83;1850945;76;22148;-65
2021/06/16 10:38:17;;;;;;;6.08;2.10;;;;;;;26.10;41.28;98895.75;1839545;76;27909;-65
2021/06/16 10:40:54;;;;;;;5.87;1.62;;;;;;;26.12;40.63;98896.53;1882337;76;22576;-65
2021/06/16 10:43:33;;;;;;;4.62;2.00;;;;;;;26.04;41.83;98889.48;1853776;76;22191;-64
2021/06/16 10:46:13;;;;;;;3.52;1.67;;;;;;;26.01;41.35;98894.94;1856235;76;22187;-64
2021/06/16 10:49:01;;;;;;;4.25;1.60;;;;;;;26.03;41.83;98895.72;1852785;76;22180;-64
2021/06/16 10:51:43;;;;;;;3.42;1.90;;;;;;;26.10;41.48;98902.36;1816907;77;21280;-65
2021/06/16 10:54:22;;;;;;;4.47;1.80;;;;;;;26.19;40.84;98896.59;1853970;76;22157;-65
2021/06/16 10:57:11;;;;;;;5.55;1.75;;;;;;;26.08;40.75;98904.70;1855177;76;22116;-64
2021/06/16 11:00:01;;;;;;;5.25;1.80;;;;;;;25.97;40.71;98911.42;1759591;81;21133;-64
2021/06/16 11:02:42;;;;;;;5.47;1.82;;;;;;;26.01;41.63;98896.73;1870530;76;22160;-63
2021/06/16 11:05:35;;;;;;;4.65;1.80;;;;;;;26.16;41.43;98899.88;1889862;76;22144;-64
2021/06/16 11:12:00;;;;;;;3.45;1.65;;;;;;;26.27;40.59;98901.94;1890075;76;22156;-65
2021/06/16 11:14:39;;;;;;;3.83;2.02;;;;;;;26.37;40.60;98900.50;1851683;76;22617;-64
2021/06/16 11:17:38;;;;;;;3.85;1.90;;;;;;;26.50;39.51;98901.52;1818545;77;22619;-65
2021/06/16 11:20:26;;;;;;;4.25;1.60;;;;;;;26.50;39.46;98913.44;1861111;76;22152;-63
2021/06/16 11:23:05;;;;;;;3.92;1.52;;;;;;;26.58;39.19;98904.63;1857534;76;22152;-63
2021/06/16 11:25:41;;;;;;;3.17;1.60;;;;;;;26.57;39.43;98898.96;1849217;76;22638;-64
2021/06/16 11:28:23;;;;;;;3.98;1.57;;;;;;;26.60;39.00;98905.88;1865504;76;20113;-65
2021/06/16 11:31:10;;;;;;;4.05;1.47;;;;;;;26.59;39.01;98907.67;1758420;80;21296;-64
2021/06/16 11:33:52;;;;;;;2.65;1.52;;;;;;;26.75;38.60;98908.14;1851504;76;22777;-63
2021/06/16 11:36:38;;;;;;;3.90;1.90;;;;;;;26.67;38.73;98902.43;1841833;76;28072;-66
2021/06/16 11:39:25;;;;;;;2.45;1.50;;;;;;;26.71;39.27;98902.14;1834819;77;21612;-63
2021/06/16 11:42:00;;;;;;;2.85;1.70;;;;;;;26.92;38.77;98890.83;1868735;76;22190;-67
2021/06/16 11:44:36;;;;;;;5.15;1.42;;;;;;;26.90;39.07;98891.86;1855005;76;20115;-64
2021/06/16 11:47:10;;;;;;;3.02;1.65;;;;;;;26.98;39.48;98883.00;1863498;76;22159;-66
2021/06/16 11:49:46;;;;;;;3.27;1.57;;;;;;;27.08;38.74;98901.87;1869153;76;22514;-67
2021/06/16 11:52:22;;;;;;;3.87;1.47;;;;;;;27.12;38.55;98896.31;1856038;76;22255;-69
2021/06/16 11:54:56;;;;;;;2.95;1.60;;;;;;;27.18;38.99;98896.45;1852047;76;22244;-65
2021/06/16 11:57:32;;;;;;;4.30;1.50;;;;;;;27.17;38.57;98890.72;1863416;76;22211;-65
2021/06/16 12:00:08;;;;;;;2.65;1.30;;;;;;;27.17;38.90;98882.33;1854084;76;22194;-64
2021/06/16 12:02:50;;;;;;;4.58;1.30;;;;;;;27.27;38.52;98878.67;1852646;76;22211;-62
2021/06/16 12:05:35;;;;;;;5.28;1.50;;;;;;;27.24;37.79;98893.42;1812636;77;21287;-65
2021/06/16 12:08:23;;;;;;;2.30;1.25;;;;;;;27.34;38.12;98882.66;1850482;76;22597;-66
2021/06/16 12:10:58;;;;;;;4.28;1.40;;;;;;;27.40;37.76;98878.34;1851310;76;22173;-65
2021/06/16 12:13:33;;;;;;;3.87;1.55;;;;;;;27.37;37.54;98880.31;1870589;76;22230;-63
2021/06/16 12:16:09;;;;;;;4.58;1.37;;;;;;;27.34;37.72;98873.39;1830169;77;22231;-65
2021/06/16 12:18:44;;;;;;;4.72;1.70;;;;;;;27.38;38.06;98881.55;1852794;76;22205;-65
2021/06/16 12:21:19;;;;;;;3.45;1.35;;;;;;;27.54;38.45;98859.43;1860045;76;22585;-64
2021/06/16 12:23:54;;;;;;;4.05;1.40;;;;;;;27.54;37.64;98867.38;1860678;76;22599;-66
2021/06/16 12:26:30;;;;;;;4.30;2.12;;;;;;;27.37;38.23;98871.03;1851972;76;22176;-63
2021/06/16 12:29:04;;;;;;;4.03;1.40;;;;;;;27.32;38.72;98870.45;1850484;76;27887;-63
2021/06/16 12:31:46;;;;;;;3.80;1.50;;;;;;;27.34;38.20;98864.12;1855952;76;22284;-63
2021/06/16 12:37:16;;;;;;;3.20;1.50;;;;;;;27.32;38.17;98867.80;1838840;76;28400;-63